createdAt,value
2022-08-18T00:01:10.975Z,24.86
2022-08-18T00:04:36.576Z,24.78
2022-08-18T00:07:39.447Z,24.68
2022-08-18T00:10:50.074Z,24.65
2022-08-18T00:13:53.217Z,24.61
2022-08-18T00:16:56.219Z,24.48
2022-08-18T00:20:01.227Z,24.46
2022-08-18T00:23:04.187Z,24.47
2022-08-18T00:26:07.442Z,24.47
2022-08-18T00:29:10.642Z,24.42
2022-08-18T00:32:16.802Z,24.43
2022-08-18T00:35:26.625Z,24.43
2022-08-18T00:38:32.190Z,24.50
2022-08-18T00:41:35.142Z,24.42
2022-08-18T00:44:38.158Z,24.47
2022-08-18T00:47:43.303Z,24.41
2022-08-18T00:50:53.403Z,24.44
2022-08-18T00:54:05.922Z,24.34
2022-08-18T00:57:10.274Z,24.28
2022-08-18T01:00:15.177Z,24.26
2022-08-18T01:03:24.407Z,24.15
2022-08-18T01:06:39.353Z,24.09
2022-08-18T01:09:42.386Z,24.09
2022-08-18T01:12:47.013Z,24.01
2022-08-18T01:15:50.207Z,23.93
2022-08-18T01:19:11.634Z,23.87
2022-08-18T01:22:24.979Z,23.83
2022-08-18T01:25:46.909Z,23.77
2022-08-18T01:28:50.703Z,23.71
2022-08-18T01:31:56.203Z,23.80
2022-08-18T01:35:01.022Z,23.72
2022-08-18T01:38:04.058Z,23.67
2022-08-18T01:41:27.426Z,23.63
2022-08-18T01:44:33.769Z,23.55
2022-08-18T01:47:47.438Z,23.41
2022-08-18T01:50:53.473Z,23.38
2022-08-18T01:53:56.666Z,23.34
2022-08-18T01:57:01.673Z,23.28
2022-08-18T02:00:06.721Z,23.36
2022-08-18T02:03:15.907Z,23.33
2022-08-18T02:06:32.242Z,23.22
2022-08-18T02:09:38.632Z,23.06
2022-08-18T02:12:43.437Z,22.93
2022-08-18T02:15:46.835Z,22.83
2022-08-18T02:18:50.567Z,22.77
2022-08-18T02:21:54.526Z,22.82
2022-08-18T02:24:58.658Z,22.83
2022-08-18T02:28:02.951Z,22.77
2022-08-18T02:31:08.695Z,22.79
2022-08-18T02:34:14.435Z,22.69
2022-08-18T02:37:17.394Z,22.70
2022-08-18T02:40:20.667Z,22.69
2022-08-18T02:43:25.436Z,22.68
2022-08-18T02:46:31.081Z,22.63
2022-08-18T02:49:36.819Z,22.52
2022-08-18T02:52:40.648Z,22.47
2022-08-18T02:55:43.834Z,22.49
2022-08-18T02:58:48.293Z,22.46
2022-08-18T03:01:54.288Z,22.45
2022-08-18T03:04:57.333Z,22.51
2022-08-18T03:08:00.513Z,22.54
2022-08-18T03:11:03.532Z,22.34
2022-08-18T03:14:11.318Z,22.23
2022-08-18T03:17:14.875Z,22.19
2022-08-18T03:20:18.333Z,22.23
2022-08-18T03:23:33.647Z,22.18
2022-08-18T03:26:36.745Z,22.19
2022-08-18T03:29:41.027Z,22.11
2022-08-18T03:32:45.733Z,21.98
2022-08-18T03:35:49.348Z,21.92
2022-08-18T03:38:54.094Z,21.83
2022-08-18T03:42:01.569Z,21.84
2022-08-18T03:45:13.225Z,21.79
2022-08-18T03:48:21.167Z,21.71
2022-08-18T03:51:27.405Z,21.72
2022-08-18T03:54:33.866Z,21.77
2022-08-18T03:57:44.071Z,21.72
2022-08-18T04:00:48.384Z,21.64
2022-08-18T04:03:54.160Z,21.62
2022-08-18T04:07:01.199Z,21.60
2022-08-18T04:10:04.978Z,21.55
2022-08-18T04:13:07.965Z,21.55
2022-08-18T04:16:12.702Z,21.55
2022-08-18T04:19:26.973Z,21.52
2022-08-18T04:22:33.487Z,21.54
2022-08-18T04:25:36.639Z,21.49
2022-08-18T04:28:42.675Z,21.49
2022-08-18T04:31:47.184Z,21.48
2022-08-18T04:34:50.586Z,21.44
2022-08-18T04:37:53.712Z,21.47
2022-08-18T04:40:58.624Z,21.44
2022-08-18T04:44:04.893Z,21.41
2022-08-18T04:47:10.926Z,21.50
2022-08-18T04:50:13.910Z,21.52
2022-08-18T04:53:34.236Z,21.55
2022-08-18T04:56:40.174Z,21.69
2022-08-18T04:59:46.340Z,21.85
2022-08-18T05:02:50.855Z,21.93
2022-08-18T05:05:54.293Z,21.98
2022-08-18T05:09:01.144Z,22.01
2022-08-18T05:12:05.503Z,22.11
2022-08-18T05:15:10.710Z,22.16
2022-08-18T05:18:14.955Z,22.15
2022-08-18T05:21:22.529Z,22.26
2022-08-18T05:24:36.909Z,22.34
2022-08-18T05:27:43.829Z,22.38
2022-08-18T05:30:46.792Z,22.38
2022-08-18T05:33:51.793Z,22.44
2022-08-18T05:37:17.067Z,22.50
2022-08-18T05:40:24.575Z,22.52
2022-08-18T05:43:27.665Z,22.58
2022-08-18T05:46:40.778Z,22.68
2022-08-18T05:49:48.042Z,22.77
2022-08-18T05:52:56.350Z,22.77
2022-08-18T05:56:27.089Z,22.81
2022-08-18T05:59:34.949Z,22.91
2022-08-18T06:02:45.819Z,22.97
2022-08-18T06:05:57.426Z,22.99
2022-08-18T06:09:12.050Z,23.09
2022-08-18T06:12:25.768Z,23.08
2022-08-18T06:15:42.644Z,23.18
2022-08-18T06:18:54.450Z,23.32
2022-08-18T06:22:13.142Z,23.48
2022-08-18T06:25:24.209Z,23.51
2022-08-18T06:28:37.315Z,23.69
2022-08-18T06:31:57.210Z,23.83
2022-08-18T06:35:18.060Z,23.90
2022-08-18T06:38:45.405Z,23.98
2022-08-18T06:41:53.582Z,24.12
2022-08-18T06:45:02.225Z,24.22
2022-08-18T06:48:15.554Z,24.16
2022-08-18T06:51:22.389Z,24.21
2022-08-18T06:54:31.564Z,24.39
2022-08-18T06:57:38.456Z,24.54
2022-08-18T07:00:56.725Z,24.67
2022-08-18T07:03:59.887Z,24.81
2022-08-18T07:07:16.166Z,24.86
2022-08-18T07:10:36.604Z,24.99
2022-08-18T07:13:44.392Z,25.00
2022-08-18T07:16:58.409Z,25.11
2022-08-18T07:20:09.527Z,25.18
2022-08-18T07:23:26.604Z,25.23
2022-08-18T07:26:31.177Z,25.32
2022-08-18T07:29:38.500Z,25.43
2022-08-18T07:32:47.565Z,25.42
2022-08-18T07:35:56.458Z,25.51
2022-08-18T07:39:08.602Z,25.58
2022-08-18T07:42:50.629Z,25.66
2022-08-18T07:45:45.960Z,25.73
2022-08-18T07:48:49.220Z,25.79
2022-08-18T07:52:02.247Z,25.86
2022-08-18T07:55:14.730Z,25.90
2022-08-18T07:58:27.842Z,25.95
2022-08-18T08:01:40.830Z,25.99
2022-08-18T08:04:50.849Z,26.10
2022-08-18T08:08:01.041Z,26.13
2022-08-18T08:11:17.975Z,26.18
2022-08-18T08:14:38.385Z,26.25
2022-08-18T08:17:48.151Z,26.32
2022-08-18T08:20:57.433Z,26.32
2022-08-18T08:24:13.184Z,26.37
2022-08-18T08:27:27.714Z,26.42
2022-08-18T08:30:37.676Z,26.46
2022-08-18T08:33:51.131Z,26.49
2022-08-18T08:37:01.709Z,26.58
2022-08-18T08:40:14.886Z,26.56
2022-08-18T08:43:22.854Z,26.59
2022-08-18T08:46:31.259Z,26.82
2022-08-18T08:49:42.643Z,26.98
2022-08-18T08:52:49.648Z,27.11
2022-08-18T08:56:02.210Z,27.17
2022-08-18T08:59:11.043Z,27.28
2022-08-18T09:02:49.996Z,27.43
2022-08-18T09:06:04.835Z,27.40
2022-08-18T09:09:29.746Z,27.34
2022-08-18T09:13:00.365Z,27.38
2022-08-18T09:16:16.843Z,27.56
2022-08-18T09:19:58.876Z,27.90
2022-08-18T09:23:09.384Z,28.35
2022-08-18T09:26:40.508Z,28.65
2022-08-18T09:29:53.583Z,28.85
2022-08-18T09:33:19.033Z,29.08
2022-08-18T09:36:40.197Z,29.33
2022-08-18T09:40:13.158Z,29.52
2022-08-18T09:43:30.305Z,29.87
2022-08-18T09:50:37.285Z,29.95
2022-08-18T09:50:55.195Z,29.86
2022-08-18T09:54:25.119Z,29.86
2022-08-18T09:57:30.395Z,29.83
2022-08-18T10:00:44.667Z,29.90
2022-08-18T10:04:21.575Z,30.16
2022-08-18T10:07:43.354Z,30.34
2022-08-18T10:10:59.355Z,30.70
2022-08-18T10:14:27.229Z,31.12
2022-08-18T10:17:50.318Z,31.32
2022-08-18T10:21:05.437Z,31.50
2022-08-18T10:24:36.388Z,31.52
2022-08-18T10:27:54.469Z,31.54
2022-08-18T10:31:10.101Z,31.76
2022-08-18T10:34:19.194Z,32.08
2022-08-18T10:37:27.013Z,32.58
2022-08-18T10:40:32.317Z,32.98
2022-08-18T10:43:45.596Z,32.92
2022-08-18T10:47:00.650Z,33.36
2022-08-18T10:50:10.922Z,33.59
2022-08-18T10:53:38.804Z,33.74
2022-08-18T10:56:49.845Z,33.79
2022-08-18T11:00:03.922Z,34.15
2022-08-18T11:03:50.169Z,34.06
2022-08-18T11:06:48.868Z,34.07
2022-08-18T11:10:13.033Z,34.40
2022-08-18T11:13:26.441Z,34.43
2022-08-18T11:16:45.105Z,34.66
2022-08-18T11:19:50.664Z,34.76
2022-08-18T11:22:57.249Z,35.00
2022-08-18T11:26:18.438Z,35.20
2022-08-18T11:29:32.531Z,35.25
2022-08-18T11:32:51.394Z,35.54
2022-08-18T11:35:59.218Z,35.78
2022-08-18T11:39:04.855Z,35.85
2022-08-18T11:42:15.990Z,35.78
2022-08-18T11:45:34.494Z,35.61
2022-08-18T11:48:51.406Z,35.61
2022-08-18T11:52:02.333Z,35.34
2022-08-18T11:55:24.127Z,35.32
2022-08-18T11:58:40.919Z,35.59
2022-08-18T12:01:51.243Z,35.33
2022-08-18T12:05:08.691Z,35.69
2022-08-18T12:08:54.504Z,35.08
2022-08-18T12:11:54.287Z,35.11
2022-08-18T12:18:28.282Z,35.10
2022-08-18T12:21:34.783Z,35.41
2022-08-18T12:24:39.509Z,35.18
2022-08-18T12:27:43.836Z,35.64
2022-08-18T12:30:47.459Z,35.72
2022-08-18T12:34:00.114Z,36.17
2022-08-18T12:37:34.071Z,36.89
2022-08-18T12:40:32.473Z,37.12
2022-08-18T12:43:35.974Z,37.38
2022-08-18T12:46:42.829Z,37.11
2022-08-18T12:49:46.282Z,37.55
2022-08-18T12:52:55.182Z,37.57
2022-08-18T12:55:59.206Z,37.65
2022-08-18T12:59:06.624Z,37.96
2022-08-18T13:02:11.515Z,37.81
2022-08-18T13:05:15.077Z,38.26
2022-08-18T13:08:27.659Z,37.76
2022-08-18T13:11:34.107Z,36.55
2022-08-18T13:14:37.915Z,35.88
2022-08-18T13:17:46.637Z,35.61
2022-08-18T13:20:51.602Z,35.14
2022-08-18T13:23:56.847Z,35.71
2022-08-18T13:27:04.396Z,35.82
2022-08-18T13:30:30.081Z,35.64
2022-08-18T13:33:56.550Z,35.68
2022-08-18T13:36:57.865Z,35.32
2022-08-18T13:40:03.883Z,35.03
2022-08-18T13:43:09.227Z,35.67
2022-08-18T13:46:16.022Z,36.13
2022-08-18T13:49:23.875Z,36.28
2022-08-18T13:52:34.660Z,36.18
2022-08-18T13:55:39.737Z,35.66
2022-08-18T13:58:53.071Z,35.13
2022-08-18T14:01:56.971Z,34.68
2022-08-18T14:05:00.159Z,34.56
2022-08-18T14:08:03.394Z,34.86
2022-08-18T14:11:07.836Z,34.59
2022-08-18T14:14:10.804Z,34.31
2022-08-18T14:17:13.906Z,34.32
2022-08-18T14:20:36.491Z,34.21
2022-08-18T14:24:10.303Z,34.36
2022-08-18T14:27:17.533Z,34.40
2022-08-18T14:30:21.138Z,34.39
2022-08-18T14:33:49.741Z,34.43
2022-08-18T14:36:50.524Z,34.47
2022-08-18T14:39:56.079Z,34.85
2022-08-18T14:43:01.097Z,34.91
2022-08-18T14:46:05.144Z,34.83
2022-08-18T14:49:10.267Z,35.32
2022-08-18T14:52:14.524Z,35.19
2022-08-18T14:55:18.915Z,35.16
2022-08-18T14:58:28.006Z,34.96
2022-08-18T15:01:34.740Z,34.14
2022-08-18T15:04:38.558Z,33.19
2022-08-18T15:07:59.546Z,32.63
2022-08-18T15:11:11.845Z,32.51
2022-08-18T15:14:17.575Z,32.19
2022-08-18T15:17:22.522Z,32.07
2022-08-18T15:20:29.715Z,32.21
2022-08-18T15:23:50.415Z,31.82
2022-08-18T15:26:57.779Z,31.54
2022-08-18T15:30:05.947Z,31.44
2022-08-18T15:33:14.292Z,31.39
2022-08-18T15:36:21.433Z,31.36
2022-08-18T15:39:31.805Z,31.23
2022-08-18T15:42:36.099Z,31.06
2022-08-18T15:45:56.234Z,31.05
2022-08-18T15:49:01.443Z,31.00
2022-08-18T15:52:05.279Z,31.19
2022-08-18T15:55:14.882Z,31.14
2022-08-18T15:58:22.328Z,31.00
2022-08-18T16:01:32.158Z,30.62
2022-08-18T16:04:39.374Z,30.49
2022-08-18T16:07:45.991Z,30.56
2022-08-18T16:10:49.719Z,30.44
2022-08-18T16:13:52.703Z,30.52
2022-08-18T16:17:00.250Z,30.32
2022-08-18T16:20:03.308Z,30.46
2022-08-18T16:23:07.948Z,30.38
2022-08-18T16:29:22.434Z,29.45
2022-08-18T16:32:26.910Z,28.24
2022-08-18T16:35:31.655Z,27.48
2022-08-18T16:38:34.771Z,26.45
2022-08-18T16:41:38.941Z,25.30
2022-08-18T16:44:42.142Z,25.08
2022-08-18T16:47:46.443Z,25.00
2022-08-18T16:50:51.517Z,24.34
2022-08-18T16:53:55.142Z,24.15
2022-08-18T16:56:58.225Z,23.90
2022-08-18T17:00:18.433Z,23.72
2022-08-18T17:03:40.846Z,23.79
2022-08-18T17:06:47.616Z,23.60
2022-08-18T17:09:52.627Z,23.48
2022-08-18T17:12:55.900Z,23.43
2022-08-18T17:16:00.950Z,23.39
2022-08-18T17:19:08.213Z,23.38
2022-08-18T17:22:11.340Z,23.36
2022-08-18T17:25:18.014Z,23.14
2022-08-18T17:28:32.217Z,23.18
2022-08-18T17:31:49.439Z,23.06
2022-08-18T17:35:03.774Z,23.01
2022-08-18T17:38:15.282Z,23.03
2022-08-18T17:41:20.479Z,22.99
2022-08-18T17:44:31.071Z,23.00
2022-08-18T17:47:42.031Z,23.03
2022-08-18T17:51:11.452Z,22.86
2022-08-18T17:54:24.634Z,22.95
2022-08-18T17:57:31.279Z,22.94
2022-08-18T18:01:24.334Z,23.01
2022-08-18T18:05:11.594Z,23.21
2022-08-18T18:09:25.221Z,23.35
2022-08-18T18:13:25.302Z,23.26
2022-08-18T18:17:35.814Z,23.32
2022-08-18T18:21:05.718Z,23.31
2022-08-18T18:24:16.389Z,23.22
2022-08-18T18:27:37.010Z,23.23
2022-08-18T18:30:40.035Z,23.24
2022-08-18T18:33:44.183Z,23.04
2022-08-18T18:36:50.014Z,23.11
2022-08-18T18:39:59.929Z,23.04
2022-08-18T18:43:24.035Z,23.02
2022-08-18T18:46:32.099Z,23.07
2022-08-18T18:49:44.878Z,23.01
2022-08-18T18:53:02.541Z,23.00
2022-08-18T18:56:18.765Z,22.96
2022-08-18T18:59:39.280Z,22.96
2022-08-18T19:02:57.595Z,22.93
2022-08-18T19:06:19.404Z,22.97
2022-08-18T19:09:29.718Z,22.99
2022-08-18T19:12:43.899Z,22.99
2022-08-18T19:15:49.044Z,22.98
2022-08-18T19:19:35.094Z,22.99
2022-08-18T19:22:23.280Z,22.95
2022-08-18T19:25:30.113Z,23.12
2022-08-18T19:29:12.143Z,23.11
2022-08-18T19:32:08.290Z,23.22
2022-08-18T19:35:19.644Z,23.23
2022-08-18T19:38:33.376Z,23.29
2022-08-18T19:41:47.904Z,23.17
2022-08-18T19:45:15.841Z,23.13
2022-08-18T19:48:28.983Z,23.22
2022-08-18T19:51:37.483Z,23.28
2022-08-18T19:54:56.106Z,23.29
2022-08-18T19:58:31.866Z,23.05
2022-08-18T20:01:52.134Z,23.05
2022-08-18T20:05:15.503Z,23.18
2022-08-18T20:08:47.374Z,23.16
2022-08-18T20:12:10.939Z,23.10
2022-08-18T20:15:20.475Z,23.04
2022-08-18T20:18:34.391Z,23.03
2022-08-18T20:21:48.248Z,22.98
2022-08-18T20:24:54.543Z,22.97
2022-08-18T20:28:33.486Z,23.03
2022-08-18T20:31:53.732Z,22.97
2022-08-18T20:35:17.947Z,22.91
2022-08-18T20:38:34.205Z,22.92
2022-08-18T20:41:50.478Z,22.98
2022-08-18T20:44:59.919Z,23.07
2022-08-18T20:48:18.349Z,23.05
2022-08-18T20:51:26.657Z,23.01
2022-08-18T20:54:57.743Z,23.05
2022-08-18T20:58:08.123Z,23.10
2022-08-18T21:01:14.542Z,23.14
2022-08-18T21:04:17.524Z,23.28
2022-08-18T21:07:36.741Z,23.24
2022-08-18T21:10:51.288Z,23.06
2022-08-18T21:13:57.301Z,22.95
2022-08-18T21:17:00.435Z,22.56
2022-08-18T21:20:07.670Z,22.24
2022-08-18T21:23:14.849Z,22.16
2022-08-18T21:26:18.315Z,22.09
2022-08-18T21:29:23.121Z,22.06
2022-08-18T21:32:32.375Z,22.13
2022-08-18T21:35:38.000Z,22.08
2022-08-18T21:39:05.093Z,22.12
2022-08-18T21:42:20.430Z,22.03
2022-08-18T21:45:24.239Z,22.15
2022-08-18T21:48:29.028Z,22.15
2022-08-18T21:51:43.204Z,22.12
2022-08-18T21:54:47.928Z,22.15
2022-08-18T21:58:02.676Z,22.23
2022-08-18T22:01:23.544Z,22.22
2022-08-18T22:04:35.840Z,22.17
2022-08-18T22:07:47.833Z,22.18
2022-08-18T22:12:00.074Z,22.14
2022-08-18T22:15:11.493Z,22.13
2022-08-18T22:18:41.319Z,22.03
2022-08-18T22:21:49.821Z,22.07
2022-08-18T22:24:56.745Z,22.14
2022-08-18T22:28:01.733Z,22.07
2022-08-18T22:31:05.782Z,21.99
2022-08-18T22:34:11.382Z,21.96
2022-08-18T22:37:19.393Z,21.98
2022-08-18T22:40:22.634Z,22.00
2022-08-18T22:43:27.211Z,22.02
2022-08-18T22:46:30.211Z,22.02
2022-08-18T22:49:37.108Z,22.14
2022-08-18T22:52:43.882Z,22.11
2022-08-18T22:55:46.881Z,22.09
2022-08-18T22:58:51.492Z,22.02
2022-08-18T23:01:56.279Z,22.06
2022-08-18T23:05:00.734Z,21.92
2022-08-18T23:08:03.983Z,21.94
2022-08-18T23:11:07.152Z,21.91
2022-08-18T23:14:12.292Z,21.89
2022-08-18T23:17:15.966Z,21.87
2022-08-18T23:20:20.114Z,21.89
2022-08-18T23:23:31.667Z,21.83
2022-08-18T23:26:35.258Z,21.73
2022-08-18T23:29:41.130Z,21.66
2022-08-18T23:32:44.110Z,21.71
2022-08-18T23:35:48.122Z,21.72
2022-08-18T23:38:51.099Z,21.65
2022-08-18T23:41:55.236Z,21.72
2022-08-18T23:45:03.223Z,21.67
2022-08-18T23:48:07.313Z,21.74
2022-08-18T23:51:10.356Z,21.62
2022-08-18T23:54:18.042Z,21.65
2022-08-18T23:57:21.046Z,21.67
